createdAt,value
2018-09-04T00:00:05.803Z,101719.74
2018-09-04T00:03:09.087Z,101715.77
2018-09-04T00:06:13.044Z,101722.45
2018-09-04T00:09:16.381Z,101725.13
2018-09-04T00:12:19.700Z,101728.21
2018-09-04T00:15:23.100Z,101725.29
2018-09-04T00:18:26.500Z,101726.01
2018-09-04T00:21:29.744Z,101728.92
2018-09-04T00:24:32.952Z,101727.46
2018-09-04T00:27:36.301Z,101727.48
2018-09-04T00:30:39.551Z,101730.52
2018-09-04T00:33:43.248Z,101731.44
2018-09-04T00:36:46.569Z,101728.17
2018-09-04T00:39:50.490Z,101730.20
2018-09-04T00:42:53.777Z,101729.90
2018-09-04T00:45:57.046Z,101733.61
2018-09-04T00:49:00.261Z,101735.45
2018-09-04T00:52:03.473Z,101737.29
2018-09-04T00:55:06.760Z,101740.53
2018-09-04T00:58:10.061Z,101742.84
2018-09-04T01:01:13.877Z,101740.46
2018-09-04T01:04:17.199Z,101739.66
2018-09-04T01:07:20.431Z,101740.75
2018-09-04T01:10:23.759Z,101738.11
2018-09-04T01:13:27.116Z,101736.75
2018-09-04T01:16:30.315Z,101736.86
2018-09-04T01:19:33.760Z,101734.99
2018-09-04T01:22:37.063Z,101735.77
2018-09-04T01:25:41.363Z,101731.09
2018-09-04T01:28:44.843Z,101737.25
2018-09-04T01:31:48.174Z,101736.23
2018-09-04T01:34:51.527Z,101743.84
2018-09-04T01:37:54.751Z,101743.16
2018-09-04T01:40:58.054Z,101739.56
2018-09-04T01:44:01.332Z,101744.63
2018-09-04T01:47:04.540Z,101750.84
2018-09-04T01:50:07.888Z,101758.46
2018-09-04T01:53:11.485Z,101757.89
2018-09-04T01:56:16.592Z,101761.97
2018-09-04T01:59:19.875Z,101764.80
2018-09-04T02:02:23.079Z,101762.63
2018-09-04T02:05:26.230Z,101762.34
2018-09-04T02:08:29.590Z,101759.56
2018-09-04T02:11:32.861Z,101757.49
2018-09-04T02:14:36.162Z,101763.57
2018-09-04T02:17:39.528Z,101764.89
2018-09-04T02:20:43.155Z,101763.95
2018-09-04T02:23:46.466Z,101759.90
2018-09-04T02:26:49.766Z,101755.97
2018-09-04T02:29:52.964Z,101757.10
2018-09-04T02:32:56.327Z,101758.13
2018-09-04T02:35:59.576Z,101759.67
2018-09-04T02:39:03.203Z,101762.63
2018-09-04T02:42:07.466Z,101765.88
2018-09-04T02:45:10.815Z,101772.40
2018-09-04T02:48:15.511Z,101770.09
2018-09-04T02:51:18.827Z,101769.59
2018-09-04T02:54:22.164Z,101763.97
2018-09-04T02:57:26.431Z,101764.81
2018-09-04T03:00:29.967Z,101768.95
2018-09-04T03:03:33.239Z,101759.31
2018-09-04T03:06:36.524Z,101764.41
2018-09-04T03:09:39.810Z,101764.41
2018-09-04T03:12:43.213Z,101765.85
2018-09-04T03:15:46.415Z,101768.47
2018-09-04T03:18:49.708Z,101771.98
2018-09-04T03:21:52.909Z,101769.88
2018-09-04T03:24:56.244Z,101771.82
2018-09-04T03:27:59.353Z,101774.76
2018-09-04T03:31:02.672Z,101776.29
2018-09-04T03:34:05.900Z,101772.42
2018-09-04T03:37:09.186Z,101768.34
2018-09-04T03:40:13.275Z,101765.83
2018-09-04T03:43:16.487Z,101758.64
2018-09-04T03:46:19.783Z,101764.74
2018-09-04T03:49:23.009Z,101762.06
2018-09-04T03:52:26.246Z,101768.98
2018-09-04T03:55:29.384Z,101767.38
2018-09-04T03:58:33.617Z,101770.55
2018-09-04T04:01:36.900Z,101767.43
2018-09-04T04:04:40.320Z,101776.40
2018-09-04T04:07:44.763Z,101780.48
2018-09-04T04:10:48.016Z,101778.24
2018-09-04T04:13:52.240Z,101782.19
2018-09-04T04:16:55.415Z,101784.63
2018-09-04T04:19:58.797Z,101776.47
2018-09-04T04:23:02.011Z,101775.46
2018-09-04T04:26:05.467Z,101783.35
2018-09-04T04:29:08.707Z,101784.00
2018-09-04T04:32:12.368Z,101784.02
2018-09-04T04:35:15.664Z,101781.84
2018-09-04T04:38:19.513Z,101787.85
2018-09-04T04:41:23.744Z,101786.67
2018-09-04T04:44:27.090Z,101795.11
2018-09-04T04:47:35.615Z,101796.92
2018-09-04T04:50:38.856Z,101793.78
2018-09-04T04:53:43.543Z,101799.67
2018-09-04T04:56:46.803Z,101803.82
2018-09-04T04:59:49.975Z,101807.42
2018-09-04T05:02:53.287Z,101805.54
2018-09-04T05:05:56.834Z,101812.67
2018-09-04T05:09:00.078Z,101812.21
2018-09-04T05:12:03.638Z,101812.78
2018-09-04T05:15:06.906Z,101813.04
2018-09-04T05:18:10.058Z,101814.20
2018-09-04T05:21:14.695Z,101819.50
2018-09-04T05:24:17.901Z,101826.66
2018-09-04T05:27:21.301Z,101827.44
2018-09-04T05:30:24.444Z,101827.80
2018-09-04T05:33:34.805Z,101832.14
2018-09-04T05:36:38.171Z,101843.00
2018-09-04T05:39:41.386Z,101846.86
2018-09-04T05:42:50.245Z,101844.34
2018-09-04T05:45:54.697Z,101847.99
2018-09-04T05:48:58.576Z,101850.50
2018-09-04T05:52:01.832Z,101844.65
2018-09-04T05:55:05.504Z,101845.92
2018-09-04T05:58:08.851Z,101850.51
2018-09-04T06:01:12.573Z,101849.35
2018-09-04T06:04:15.891Z,101854.59
2018-09-04T06:07:19.245Z,101857.09
2018-09-04T06:10:22.542Z,101854.50
2018-09-04T06:13:25.808Z,101857.95
2018-09-04T06:16:29.168Z,101857.55
2018-09-04T06:19:32.475Z,101866.48
2018-09-04T06:22:35.954Z,101868.64
2018-09-04T06:25:39.110Z,101871.75
2018-09-04T06:28:43.380Z,101867.58
2018-09-04T06:31:46.620Z,101867.25
2018-09-04T06:34:49.840Z,101866.73
2018-09-04T06:37:53.150Z,101870.52
2018-09-04T06:40:56.452Z,101867.43
2018-09-04T06:43:59.617Z,101864.50
2018-09-04T06:47:02.848Z,101866.35
2018-09-04T06:50:06.254Z,101862.97
2018-09-04T06:53:09.544Z,101870.33
2018-09-04T06:56:13.427Z,101868.37
2018-09-04T06:59:16.715Z,101866.05
2018-09-04T07:02:19.933Z,101867.27
2018-09-04T07:05:23.068Z,101869.73
2018-09-04T07:08:26.303Z,101867.29
2018-09-04T07:11:29.505Z,101864.54
2018-09-04T07:14:32.842Z,101861.83
2018-09-04T07:17:36.107Z,101868.16
2018-09-04T07:20:39.408Z,101867.16
2018-09-04T07:23:45.264Z,101861.15
2018-09-04T07:26:48.581Z,101857.44
2018-09-04T07:29:51.795Z,101858.90
2018-09-04T07:32:55.162Z,101855.78
2018-09-04T07:35:58.452Z,101858.49
2018-09-04T07:39:01.747Z,101857.27
2018-09-04T07:42:05.060Z,101858.22
2018-09-04T07:45:08.672Z,101860.27
2018-09-04T07:48:12.488Z,101864.89
2018-09-04T07:51:15.681Z,101862.43
2018-09-04T07:54:19.998Z,101862.52
2018-09-04T07:57:23.257Z,101859.40
2018-09-04T08:00:26.576Z,101850.71
2018-09-04T08:03:29.710Z,101847.39
2018-09-04T08:06:32.914Z,101849.77
2018-09-04T08:09:36.134Z,101855.59
2018-09-04T08:12:39.540Z,101850.12
2018-09-04T08:15:43.547Z,101848.03
2018-09-04T08:18:46.811Z,101849.18
2018-09-04T08:21:50.140Z,101854.30
2018-09-04T08:24:53.294Z,101854.85
2018-09-04T08:27:56.671Z,101857.20
2018-09-04T08:30:59.875Z,101851.01
2018-09-04T08:34:03.084Z,101849.12
2018-09-04T08:37:06.813Z,101848.13
2018-09-04T08:40:10.316Z,101840.02
2018-09-04T08:43:14.277Z,101838.24
2018-09-04T08:46:17.909Z,101838.16
2018-09-04T08:49:21.176Z,101834.84
2018-09-04T08:52:24.478Z,101831.66
2018-09-04T08:55:27.797Z,101827.04
2018-09-04T08:58:31.396Z,101814.29
2018-09-04T09:01:34.499Z,101814.30
2018-09-04T09:04:37.815Z,101816.36
2018-09-04T09:07:41.096Z,101814.61
2018-09-04T09:10:45.261Z,101815.41
2018-09-04T09:13:48.575Z,101809.73
2018-09-04T09:16:51.916Z,101803.47
2018-09-04T09:19:55.296Z,101802.33
2018-09-04T09:22:58.603Z,101801.74
2018-09-04T09:26:01.898Z,101794.81
2018-09-04T09:29:05.157Z,101788.47
2018-09-04T09:32:08.372Z,101784.89
2018-09-04T09:35:12.626Z,101787.85
2018-09-04T09:38:18.835Z,101793.78
2018-09-04T09:41:22.049Z,101792.98
2018-09-04T09:44:25.399Z,101789.68
2018-09-04T09:47:30.610Z,101791.38
2018-09-04T09:50:33.945Z,101794.58
2018-09-04T09:53:37.330Z,101801.10
2018-09-04T09:56:40.395Z,101801.79
2018-09-04T09:59:45.124Z,101790.33
2018-09-04T10:02:51.090Z,101793.81
2018-09-04T10:05:54.689Z,101791.36
2018-09-04T10:08:57.979Z,101791.71
2018-09-04T10:12:01.274Z,101787.98
2018-09-04T10:15:04.802Z,101788.42
2018-09-04T10:18:07.987Z,101784.29
2018-09-04T10:21:11.297Z,101769.99
2018-09-04T10:24:15.676Z,101769.41
2018-09-04T10:27:18.987Z,101769.39
2018-09-04T10:30:22.312Z,101760.80
2018-09-04T10:33:25.651Z,101759.39
2018-09-04T10:36:28.804Z,101755.82
2018-09-04T10:39:39.429Z,101755.93
2018-09-04T10:42:43.563Z,101758.93
2018-09-04T10:45:52.276Z,101756.85
2018-09-04T10:48:55.484Z,101752.18
2018-09-04T10:51:58.802Z,101750.86
2018-09-04T10:55:02.100Z,101758.60
2018-09-04T10:58:06.195Z,101758.74
2018-09-04T11:01:09.415Z,101752.50
2018-09-04T11:04:12.688Z,101747.75
2018-09-04T11:07:16.167Z,101745.99
2018-09-04T11:10:19.512Z,101745.38
2018-09-04T11:13:22.787Z,101742.03
2018-09-04T11:16:26.187Z,101743.27
2018-09-04T11:19:29.359Z,101742.73
2018-09-04T11:22:32.848Z,101745.77
2018-09-04T11:25:36.102Z,101734.70
2018-09-04T11:28:43.536Z,101735.06
2018-09-04T11:31:46.863Z,101723.93
2018-09-04T11:34:50.143Z,101721.75
2018-09-04T11:37:53.397Z,101724.91
2018-09-04T11:40:56.668Z,101717.48
2018-09-04T11:43:59.929Z,101716.46
2018-09-04T11:47:03.597Z,101718.01
2018-09-04T11:50:06.856Z,101723.35
2018-09-04T11:53:10.156Z,101722.89
2018-09-04T11:56:17.499Z,101719.94
2018-09-04T11:59:20.839Z,101719.61
2018-09-04T12:02:27.355Z,101718.35
2018-09-04T12:05:30.522Z,101713.10
2018-09-04T12:08:34.424Z,101707.93
2018-09-04T12:11:37.716Z,101709.44
2018-09-04T12:14:41.123Z,101706.85
2018-09-04T12:17:45.039Z,101707.18
2018-09-04T12:20:52.596Z,101699.51
2018-09-04T12:23:55.845Z,101698.93
2018-09-04T12:26:59.131Z,101695.80
2018-09-04T12:30:02.297Z,101698.58
2018-09-04T12:33:05.743Z,101698.01
2018-09-04T12:36:09.252Z,101692.86
2018-09-04T12:39:13.584Z,101695.07
2018-09-04T12:42:16.861Z,101691.05
2018-09-04T12:45:20.039Z,101684.97
2018-09-04T12:48:25.388Z,101679.89
2018-09-04T12:51:28.699Z,101684.82
2018-09-04T12:54:32.014Z,101686.83
2018-09-04T12:57:35.299Z,101686.66
2018-09-04T13:00:38.605Z,101689.11
2018-09-04T13:03:41.996Z,101696.01
2018-09-04T13:06:46.604Z,101693.60
2018-09-04T13:09:49.841Z,101695.50
2018-09-04T13:12:53.195Z,101698.36
2018-09-04T13:15:57.942Z,101699.71
2018-09-04T13:19:01.227Z,101691.62
2018-09-04T13:22:04.839Z,101681.74
2018-09-04T13:25:08.076Z,101679.67
2018-09-04T13:28:11.299Z,101678.08
2018-09-04T13:31:15.519Z,101672.64
2018-09-04T13:34:18.892Z,101670.09
2018-09-04T13:37:23.503Z,101664.15
2018-09-04T13:40:26.998Z,101665.94
2018-09-04T13:43:30.281Z,101662.27
2018-09-04T13:46:33.548Z,101659.96
2018-09-04T13:49:36.871Z,101651.04
2018-09-04T13:52:40.047Z,101656.93
2018-09-04T13:55:43.728Z,101651.75
2018-09-04T13:58:47.134Z,101650.80
2018-09-04T14:01:50.440Z,101646.76
2018-09-04T14:04:53.591Z,101643.87
2018-09-04T14:07:58.891Z,101645.70
2018-09-04T14:11:02.160Z,101644.73
2018-09-04T14:14:05.543Z,101635.01
2018-09-04T14:17:12.768Z,101639.87
2018-09-04T14:20:16.047Z,101637.44
2018-09-04T14:23:19.387Z,101631.78
2018-09-04T14:26:22.734Z,101626.21
2018-09-04T14:29:54.486Z,101628.71
2018-09-04T14:32:29.250Z,101627.64
2018-09-04T14:35:32.557Z,101633.50
2018-09-04T14:38:35.905Z,101636.91
2018-09-04T14:41:39.186Z,101633.60
2018-09-04T14:44:42.467Z,101630.92
2018-09-04T14:47:45.770Z,101630.33
2018-09-04T14:50:50.491Z,101627.23
2018-09-04T14:53:53.668Z,101623.71
2018-09-04T14:56:57.054Z,101617.77
2018-09-04T15:00:00.296Z,101619.06
2018-09-04T15:03:03.840Z,101621.70
2018-09-04T15:06:07.081Z,101624.97
2018-09-04T15:09:10.360Z,101622.53
2018-09-04T15:12:13.761Z,101619.85
2018-09-04T15:15:17.293Z,101619.28
2018-09-04T15:18:21.591Z,101617.26
2018-09-04T15:21:24.877Z,101620.45
2018-09-04T15:24:28.240Z,101616.96
2018-09-04T15:27:31.547Z,101612.16
2018-09-04T15:30:35.817Z,101613.87
2018-09-04T15:33:39.181Z,101616.45
2018-09-04T15:36:42.311Z,101616.21
2018-09-04T15:39:45.595Z,101619.79
2018-09-04T15:42:50.063Z,101618.04
2018-09-04T15:45:53.552Z,101618.44
2018-09-04T15:49:02.574Z,101616.30
2018-09-04T15:52:05.759Z,101622.08
2018-09-04T15:55:09.049Z,101625.12
2018-09-04T15:58:12.408Z,101625.39
2018-09-04T16:01:15.819Z,101625.18
2018-09-04T16:04:19.267Z,101623.11
2018-09-04T16:07:22.850Z,101629.46
2018-09-04T16:10:26.158Z,101623.87
2018-09-04T16:13:29.440Z,101622.85
2018-09-04T16:16:32.740Z,101625.47
2018-09-04T16:19:36.030Z,101622.44
2018-09-04T16:22:39.225Z,101623.17
2018-09-04T16:25:42.525Z,101623.89
2018-09-04T16:28:45.828Z,101630.60
2018-09-04T16:31:49.016Z,101634.56
2018-09-04T16:34:53.507Z,101638.46
2018-09-04T16:37:56.732Z,101643.74
2018-09-04T16:40:59.940Z,101639.29
2018-09-04T16:44:03.731Z,101639.07
2018-09-04T16:47:06.938Z,101642.15
2018-09-04T16:50:10.099Z,101642.69
2018-09-04T16:53:13.464Z,101639.44
2018-09-04T16:56:16.757Z,101643.22
2018-09-04T16:59:20.674Z,101644.83
2018-09-04T17:02:23.959Z,101656.16
2018-09-04T17:05:27.396Z,101656.07
2018-09-04T17:08:30.651Z,101660.14
2018-09-04T17:11:33.968Z,101657.98
2018-09-04T17:14:37.245Z,101661.79
2018-09-04T17:17:40.594Z,101660.57
2018-09-04T17:20:43.970Z,101660.34
2018-09-04T17:23:47.295Z,101662.29
2018-09-04T17:26:51.796Z,101662.63
2018-09-04T17:29:55.077Z,101665.49
2018-09-04T17:32:58.288Z,101664.24
2018-09-04T17:36:01.590Z,101673.32
2018-09-04T17:39:06.213Z,101671.27
2018-09-04T17:42:10.532Z,101670.07
2018-09-04T17:45:13.892Z,101672.66
2018-09-04T17:48:17.152Z,101674.50
2018-09-04T17:51:22.511Z,101675.97
2018-09-04T17:54:25.839Z,101684.80
2018-09-04T17:57:29.043Z,101693.35
2018-09-04T18:00:32.354Z,101693.36
2018-09-04T18:03:35.684Z,101690.26
2018-09-04T18:06:40.165Z,101698.73
2018-09-04T18:09:43.487Z,101701.39
2018-09-04T18:12:47.768Z,101706.10
2018-09-04T18:15:51.811Z,101706.66
2018-09-04T18:18:56.143Z,101710.88
2018-09-04T18:21:59.389Z,101714.98
2018-09-04T18:25:02.734Z,101719.99
2018-09-04T18:28:06.125Z,101721.70
2018-09-04T18:31:09.416Z,101729.29
2018-09-04T18:34:12.826Z,101730.82
2018-09-04T18:37:16.136Z,101734.87
2018-09-04T18:40:19.412Z,101738.70
2018-09-04T18:43:23.722Z,101742.25
2018-09-04T18:46:27.019Z,101747.36
2018-09-04T18:49:30.339Z,101750.86
2018-09-04T18:52:33.487Z,101755.33
2018-09-04T18:55:36.896Z,101753.55
2018-09-04T18:58:40.233Z,101753.33
2018-09-04T19:01:43.501Z,101754.88
2018-09-04T19:04:46.799Z,101759.19
2018-09-04T19:07:52.282Z,101757.24
2018-09-04T19:10:55.572Z,101761.39
2018-09-04T19:13:58.884Z,101755.78
2018-09-04T19:17:02.175Z,101756.95
2018-09-04T19:20:05.452Z,101753.24
2018-09-04T19:23:08.857Z,101756.90
2018-09-04T19:26:12.159Z,101751.80
2018-09-04T19:29:15.443Z,101749.87
2018-09-04T19:32:19.671Z,101752.58
2018-09-04T19:35:23.582Z,101755.28
2018-09-04T19:38:26.872Z,101755.28
2018-09-04T19:41:30.034Z,101754.90
2018-09-04T19:44:33.372Z,101761.63
2018-09-04T19:47:37.079Z,101764.10
2018-09-04T19:50:40.420Z,101766.04
2018-09-04T19:53:43.981Z,101768.18
2018-09-04T19:56:47.280Z,101771.33
2018-09-04T19:59:50.568Z,101771.68
2018-09-04T20:02:53.940Z,101772.63
2018-09-04T20:05:57.187Z,101774.35
2018-09-04T20:09:00.587Z,101776.75
2018-09-04T20:12:03.858Z,101775.58
2018-09-04T20:15:11.664Z,101779.13
2018-09-04T20:18:15.793Z,101781.98
2018-09-04T20:21:19.100Z,101782.73
2018-09-04T20:24:22.384Z,101789.34
2018-09-04T20:27:25.680Z,101790.02
2018-09-04T20:30:28.927Z,101786.81
2018-09-04T20:33:32.259Z,101794.63
2018-09-04T20:36:35.564Z,101795.21
2018-09-04T20:39:38.758Z,101790.02
2018-09-04T20:42:42.039Z,101793.40
2018-09-04T20:45:45.777Z,101789.20
2018-09-04T20:48:49.069Z,101796.15
2018-09-04T20:51:52.365Z,101791.96
2018-09-04T20:54:55.641Z,101789.40
2018-09-04T20:58:10.467Z,101791.98
2018-09-04T21:01:25.094Z,101793.70
2018-09-04T21:04:39.743Z,101791.77
2018-09-04T21:08:00.591Z,101790.78
2018-09-04T21:11:03.855Z,101789.70
2018-09-04T21:14:07.206Z,101788.90
2018-09-04T21:17:11.462Z,101789.30
2018-09-04T21:20:14.804Z,101784.55
2018-09-04T21:23:18.985Z,101784.74
2018-09-04T21:26:22.269Z,101789.57
2018-09-04T21:29:43.208Z,101790.58
2018-09-04T21:32:46.516Z,101793.46
2018-09-04T21:35:49.875Z,101793.33
2018-09-04T21:38:53.187Z,101789.07
2018-09-04T21:41:56.483Z,101787.84
2018-09-04T21:44:59.990Z,101789.83
2018-09-04T21:48:03.393Z,101788.85
2018-09-04T21:51:06.907Z,101787.71
2018-09-04T21:54:10.199Z,101794.62
2018-09-04T21:57:13.357Z,101789.15
2018-09-04T22:00:22.183Z,101786.08
2018-09-04T22:03:25.489Z,101785.31
2018-09-04T22:06:28.796Z,101786.93
2018-09-04T22:09:36.748Z,101783.12
2018-09-04T22:12:39.978Z,101782.62
2018-09-04T22:15:43.185Z,101780.64
2018-09-04T22:18:47.443Z,101782.76
2018-09-04T22:21:50.771Z,101782.40
2018-09-04T22:24:54.016Z,101782.03
2018-09-04T22:27:57.293Z,101784.51
2018-09-04T22:31:00.633Z,101777.18
2018-09-04T22:34:03.791Z,101778.77
2018-09-04T22:37:07.104Z,101781.58
2018-09-04T22:40:10.414Z,101782.32
2018-09-04T22:43:14.708Z,101781.56
2018-09-04T22:46:19.153Z,101789.47
2018-09-04T22:49:22.435Z,101792.60
2018-09-04T22:52:30.476Z,101791.89
2018-09-04T22:55:34.797Z,101787.44
2018-09-04T22:58:38.147Z,101783.94
2018-09-04T23:01:41.342Z,101783.36
2018-09-04T23:04:44.660Z,101782.45
2018-09-04T23:07:48.253Z,101779.26
2018-09-04T23:10:51.483Z,101778.79
2018-09-04T23:13:54.883Z,101784.02
2018-09-04T23:16:58.163Z,101783.26
2018-09-04T23:20:01.381Z,101783.10
2018-09-04T23:23:04.775Z,101787.57
2018-09-04T23:26:08.111Z,101787.00
2018-09-04T23:29:11.322Z,101783.60
2018-09-04T23:32:14.540Z,101786.81
2018-09-04T23:35:18.816Z,101790.15
2018-09-04T23:38:23.307Z,101788.44
2018-09-04T23:41:26.489Z,101787.72
2018-09-04T23:44:30.794Z,101790.38
2018-09-04T23:47:34.099Z,101790.77
2018-09-04T23:50:37.408Z,101785.53
2018-09-04T23:53:40.695Z,101790.09
2018-09-04T23:56:43.978Z,101790.04
2018-09-04T23:59:47.672Z,101787.86
